createdAt,value
2022-08-09T00:04:10.002Z,18.60
2022-08-09T00:08:39.503Z,18.50
2022-08-09T00:13:51.536Z,18.40
2022-08-09T00:19:09.234Z,18.30
2022-08-09T00:24:24.621Z,18.20
2022-08-09T00:30:10.119Z,18.00
2022-08-09T00:35:07.367Z,18.00
2022-08-09T00:40:20.118Z,17.90
2022-08-09T00:45:26.539Z,17.90
2022-08-09T00:50:32.344Z,17.90
2022-08-09T00:56:43.332Z,17.80
2022-08-09T01:15:32.970Z,17.60
2022-08-09T01:40:23.174Z,17.40
2022-08-09T01:45:52.538Z,17.20
2022-08-09T01:56:57.809Z,17.20
2022-08-09T02:02:21.797Z,17.10
2022-08-09T02:08:39.794Z,17.10
2022-08-09T02:13:09.236Z,17.00
2022-08-09T02:23:54.639Z,16.70
2022-08-09T02:29:14.486Z,16.60
2022-08-09T02:34:40.129Z,16.60
2022-08-09T02:40:01.509Z,16.60
2022-08-09T02:45:15.161Z,16.50
2022-08-09T02:50:28.519Z,16.50
2022-08-09T02:55:57.308Z,16.40
2022-08-09T03:01:21.717Z,16.30
2022-08-09T03:06:46.603Z,16.20
2022-08-09T03:12:10.552Z,16.20
2022-08-09T03:17:26.666Z,16.10
2022-08-09T03:22:43.614Z,16.00
2022-08-09T03:28:03.924Z,15.90
2022-08-09T03:33:18.972Z,15.90
2022-08-09T03:38:28.727Z,15.80
2022-08-09T03:50:10.010Z,15.80
2022-08-09T03:55:36.077Z,15.70
2022-08-09T04:01:20.622Z,15.60
2022-08-09T04:06:51.346Z,15.40
2022-08-09T04:12:49.803Z,15.30
2022-08-09T04:18:07.924Z,15.40
2022-08-09T04:23:53.682Z,15.40
2022-08-09T04:29:27.085Z,15.50
2022-08-09T04:46:37.632Z,15.90
2022-08-09T04:51:56.871Z,15.90
2022-08-09T04:57:24.019Z,16.00
2022-08-09T05:03:30.682Z,16.00
2022-08-09T05:08:55.111Z,15.90
2022-08-09T05:14:44.365Z,15.90
2022-08-09T05:26:07.936Z,16.00
2022-08-09T05:31:57.170Z,16.40
2022-08-09T05:37:13.917Z,17.10
2022-08-09T05:42:42.088Z,17.80
2022-08-09T05:48:08.785Z,18.20
2022-08-09T05:53:32.036Z,18.80
2022-08-09T05:58:58.282Z,18.90
2022-08-09T06:04:12.480Z,18.70
2022-08-09T06:09:54.149Z,18.80
2022-08-09T06:15:31.062Z,19.20
2022-08-09T06:26:32.511Z,20.60
2022-08-09T06:32:52.876Z,21.20
2022-08-09T06:38:05.827Z,21.60
2022-08-09T06:43:43.662Z,21.80
2022-08-09T06:49:16.145Z,22.50
2022-08-09T06:54:50.713Z,24.40
2022-08-09T07:00:57.038Z,25.90
2022-08-09T07:06:31.319Z,26.70
2022-08-09T07:11:56.832Z,27.40
2022-08-09T07:22:58.914Z,28.30
2022-08-09T07:28:34.883Z,28.50
2022-08-09T07:34:02.040Z,28.40
2022-08-09T07:39:40.467Z,28.60
2022-08-09T07:45:06.421Z,29.10
2022-08-09T07:50:53.101Z,29.40
2022-08-09T08:02:42.974Z,29.30
2022-08-09T08:09:00.418Z,30.00
2022-08-09T08:14:24.087Z,29.70
2022-08-09T08:19:52.815Z,29.70
2022-08-09T08:25:19.471Z,30.10
2022-08-09T08:37:07.658Z,30.50
2022-08-09T08:42:58.959Z,30.70
2022-08-09T08:48:51.743Z,30.70
2022-08-09T09:00:27.850Z,31.30
2022-08-09T09:06:04.883Z,31.70
2022-08-09T09:11:44.322Z,31.70
2022-08-09T09:23:57.516Z,32.10
2022-08-09T09:29:36.592Z,32.30
2022-08-09T09:35:46.243Z,32.50
2022-08-09T09:41:54.241Z,32.30
2022-08-09T09:47:58.339Z,32.70
2022-08-09T09:53:57.442Z,33.00
2022-08-09T09:59:20.300Z,33.00
2022-08-09T10:04:39.823Z,32.70
2022-08-09T10:10:23.900Z,33.30
2022-08-09T10:16:56.521Z,33.10
2022-08-09T10:21:57.878Z,33.50
2022-08-09T10:27:38.522Z,34.00
2022-08-09T10:33:29.507Z,33.80
2022-08-09T10:38:57.285Z,33.60
2022-08-09T10:44:27.228Z,33.30
2022-08-09T10:49:58.556Z,33.30
2022-08-09T10:56:40.433Z,33.50
2022-08-09T11:03:16.282Z,33.30
2022-08-09T11:08:51.201Z,33.60
2022-08-09T11:33:25.279Z,34.80
2022-08-09T12:03:57.287Z,33.60
2022-08-09T12:09:33.684Z,34.40
2022-08-09T12:15:09.859Z,35.70
2022-08-09T12:28:58.297Z,37.30
2022-08-09T12:33:00.799Z,37.70
2022-08-09T12:44:54.433Z,36.50
2022-08-09T12:50:47.508Z,36.50
2022-08-09T12:56:54.694Z,35.10
2022-08-09T13:08:44.088Z,32.40
2022-08-09T13:20:10.212Z,33.20
2022-08-09T13:25:57.061Z,35.60
2022-08-09T13:32:19.494Z,33.80
2022-08-09T13:43:54.680Z,31.40
2022-08-09T14:07:47.448Z,29.80
2022-08-09T14:19:26.631Z,30.90
2022-08-09T14:31:12.072Z,29.70
2022-08-09T14:50:31.297Z,28.00
2022-08-09T15:08:56.754Z,27.50
2022-08-09T15:14:38.713Z,27.40
2022-08-09T15:20:15.341Z,27.50
2022-08-09T15:26:31.150Z,27.90
2022-08-09T15:43:13.223Z,28.40
2022-08-09T15:48:28.971Z,28.50
2022-08-09T15:54:05.731Z,28.40
2022-08-09T15:59:17.824Z,28.30
2022-08-09T16:04:31.101Z,28.30
2022-08-09T16:09:57.587Z,28.10
2022-08-09T16:16:04.834Z,27.80
2022-08-09T16:20:43.727Z,27.70
2022-08-09T16:25:50.084Z,27.50
2022-08-09T16:30:58.892Z,27.50
2022-08-09T16:36:09.886Z,27.40
2022-08-09T16:41:19.912Z,27.30
2022-08-09T16:46:29.543Z,27.20
2022-08-09T16:51:33.001Z,27.00
2022-08-09T16:56:49.243Z,27.00
2022-08-09T17:01:54.906Z,26.80
2022-08-09T17:08:41.243Z,26.60
2022-08-09T17:12:26.250Z,26.40
2022-08-09T17:17:31.035Z,26.30
2022-08-09T17:22:54.294Z,26.20
2022-08-09T17:27:58.057Z,26.10
2022-08-09T17:33:05.611Z,26.10
2022-08-09T17:38:32.611Z,26.00
2022-08-09T17:43:40.746Z,25.80
2022-08-09T17:48:52.482Z,25.80
2022-08-09T17:53:56.536Z,25.70
2022-08-09T17:59:03.363Z,25.60
2022-08-09T18:04:13.748Z,25.60
2022-08-09T18:09:17.563Z,25.50
2022-08-09T18:14:20.916Z,25.30
2022-08-09T18:21:00.864Z,25.30
2022-08-09T18:24:50.828Z,25.10
2022-08-09T18:30:42.911Z,25.00
2022-08-09T18:35:18.493Z,24.90
2022-08-09T18:40:44.244Z,24.70
2022-08-09T18:46:49.011Z,24.50
2022-08-09T18:51:12.231Z,24.30
2022-08-09T18:56:16.827Z,24.10
2022-08-09T19:01:23.256Z,24.00
2022-08-09T19:06:28.176Z,23.90
2022-08-09T19:11:38.063Z,23.80
2022-08-09T19:16:42.428Z,23.70
2022-08-09T19:22:04.932Z,23.50
2022-08-09T19:27:10.770Z,23.40
2022-08-09T19:32:17.358Z,23.40
2022-08-09T19:37:23.208Z,23.30
2022-08-09T19:42:28.216Z,23.20
2022-08-09T19:47:31.739Z,23.00
2022-08-09T19:52:49.722Z,22.90
2022-08-09T19:57:55.387Z,22.90
2022-08-09T20:04:09.596Z,22.80
2022-08-09T20:08:33.408Z,22.70
2022-08-09T20:13:38.641Z,22.50
2022-08-09T20:19:03.909Z,22.40
2022-08-09T20:24:09.692Z,22.40
2022-08-09T20:29:18.858Z,22.30
2022-08-09T20:34:22.393Z,22.20
2022-08-09T20:40:15.115Z,22.10
2022-08-09T20:57:32.065Z,21.80
2022-08-09T21:02:51.719Z,21.80
2022-08-09T21:08:06.763Z,21.60
2022-08-09T21:13:21.517Z,21.60
2022-08-09T21:18:28.594Z,21.50
2022-08-09T21:23:47.585Z,21.40
2022-08-09T21:29:13.499Z,21.40
2022-08-09T21:34:48.366Z,21.40
2022-08-09T21:40:05.349Z,21.40
2022-08-09T21:58:55.572Z,21.10
2022-08-09T22:22:54.066Z,20.70
2022-08-09T22:28:32.728Z,20.50
2022-08-09T22:40:03.086Z,20.20
